NSI Airport (San Nicolas Island Nolf) Information

FAA: NSI - ICAO: KNSI

NSI Airport Location

State California
County Santa Cruz
City San Nicolas Island
NSI Airport is 0 miles east of San Nicolas Island, CA.
Latitude 33-14-23.2150N
Longitude 119-27-29.5330W
Elevation 506ft

KNSI Airport METARs

METAR KNSI 181339Z AUTO 31006KT 10SM SCT006 OVC013 12/11 A3006 RMK AO2 T01170111 PWINO $
Altimeter 30.06"
Temperature 11.7°C (53.1°F)
Wind 310° at 6KT
Clouds scattered at 600ft overcast at 1,300ft
Visibility 10.0mi
Time observed: 2022-01-18T13:39:00Z

NSI Airport Details

Status Operational
Activation May 1941
Ownership Military - Navy
Usage Private
Chart LOS ANGELES
ATC on-site Yes
Beacon schedule sunset-sunrise
Beacon color split clear green

NSI Airport Contacts

Owner US NAVY
Owner address OCEANOGRAPHIC OFC - CODE 3142, WASHINGTON, DC 20373
Owner phone N/A
Manager TONY WEBBER
Manager address 1745 N. MARSHALL AVENUE, EL CAJON, CA 92020
Manager phone 619-956-4930

NSI Airport (San Nicolas Island Nolf) Radio Frequencies

NSI (Airport) Radio Frequencies

UNICOM N/A
Common traffic advisory frequency (CTAF) N/A